createdAt,value
2023-02-11T00:00:44.372Z,0.50
2023-02-11T00:03:11.936Z,0.40
2023-02-11T00:05:40.672Z,0.30
2023-02-11T00:08:08.247Z,0.40
2023-02-11T00:10:35.923Z,0.50
2023-02-11T00:13:03.584Z,0.32
2023-02-11T00:15:31.079Z,0.40
2023-02-11T00:18:00.866Z,0.30
2023-02-11T00:20:28.441Z,0.47
2023-02-11T00:22:56.404Z,0.40
2023-02-11T00:25:23.926Z,0.75
2023-02-11T00:27:51.428Z,0.40
2023-02-11T00:30:18.979Z,0.40
2023-02-11T00:32:46.656Z,0.38
2023-02-11T00:35:14.179Z,0.30
2023-02-11T00:37:41.819Z,0.65
2023-02-11T00:40:10.715Z,0.35
2023-02-11T00:42:38.554Z,0.30
2023-02-11T00:45:06.256Z,0.30
2023-02-11T00:47:33.970Z,0.32
2023-02-11T00:50:02.076Z,0.50
2023-02-11T00:52:30.482Z,0.40
2023-02-11T00:54:57.990Z,0.50
2023-02-11T00:57:26.946Z,0.40
2023-02-11T00:59:54.460Z,0.38
2023-02-11T01:02:21.946Z,0.30
2023-02-11T01:04:49.454Z,0.38
2023-02-11T01:07:16.990Z,0.35
2023-02-11T01:09:44.506Z,0.57
2023-02-11T01:12:12.040Z,0.50
2023-02-11T01:14:39.501Z,0.30
2023-02-11T01:17:07.220Z,0.30
2023-02-11T01:19:34.719Z,0.30
2023-02-11T01:22:02.200Z,0.45
2023-02-11T01:24:29.743Z,0.40
2023-02-11T01:26:57.429Z,0.40
2023-02-11T01:29:25.065Z,0.50
2023-02-11T01:31:54.113Z,0.30
2023-02-11T01:34:21.797Z,0.70
2023-02-11T01:36:49.313Z,0.40
2023-02-11T01:39:19.426Z,0.40
2023-02-11T01:41:47.045Z,0.38
2023-02-11T01:44:28.478Z,0.35
2023-02-11T01:46:56.197Z,0.50
2023-02-11T01:49:28.755Z,0.40
2023-02-11T01:52:00.040Z,0.40
2023-02-11T01:54:48.280Z,0.38
2023-02-11T01:57:22.812Z,0.40
2023-02-11T02:00:05.708Z,0.40
2023-02-11T02:02:51.865Z,0.50
2023-02-11T02:05:39.744Z,0.60
2023-02-11T02:08:19.200Z,0.40
2023-02-11T02:10:48.050Z,0.30
2023-02-11T02:13:18.020Z,0.40
2023-02-11T02:15:50.286Z,0.50
2023-02-11T02:18:25.594Z,0.70
2023-02-11T02:21:02.623Z,0.50
2023-02-11T02:23:48.661Z,0.57
2023-02-11T02:26:36.298Z,0.40
2023-02-11T02:29:22.159Z,0.35
2023-02-11T02:31:58.025Z,0.40
2023-02-11T02:34:25.474Z,0.40
2023-02-11T02:36:58.519Z,0.63
2023-02-11T02:39:28.279Z,0.50
2023-02-11T02:41:56.543Z,0.45
2023-02-11T02:44:24.728Z,0.50
2023-02-11T02:46:52.951Z,0.40
2023-02-11T02:49:20.513Z,0.47
2023-02-11T02:51:48.029Z,0.50
2023-02-11T02:54:18.314Z,0.52
2023-02-11T02:56:50.044Z,0.40
2023-02-11T02:59:23.463Z,0.40
2023-02-11T03:04:27.743Z,0.35
2023-02-11T03:06:58.774Z,0.50
2023-02-11T03:09:26.259Z,0.38
2023-02-11T03:11:53.826Z,0.40
2023-02-11T03:14:23.459Z,0.50
2023-02-11T03:16:51.123Z,0.40
2023-02-11T03:19:21.735Z,0.55
2023-02-11T03:21:50.844Z,0.55
2023-02-11T03:24:23.336Z,0.40
2023-02-11T03:26:52.721Z,1.02
2023-02-11T03:29:26.080Z,0.40
2023-02-11T03:34:37.126Z,0.40
2023-02-11T03:39:40.467Z,0.30
2023-02-11T03:42:09.817Z,0.60
2023-02-11T03:44:39.817Z,0.40
2023-02-11T03:47:09.666Z,0.60
2023-02-11T03:49:39.201Z,0.80
2023-02-11T03:52:08.487Z,0.63
2023-02-11T03:54:36.327Z,0.47
2023-02-11T03:57:04.067Z,0.68
2023-02-11T03:59:32.581Z,0.50
2023-02-11T04:02:00.266Z,0.60
2023-02-11T04:04:27.808Z,0.85
2023-02-11T04:06:55.326Z,0.63
2023-02-11T04:09:23.823Z,0.40
2023-02-11T04:11:51.542Z,0.57
2023-02-11T04:14:19.001Z,0.75
2023-02-11T04:16:46.800Z,0.38
2023-02-11T04:19:14.516Z,0.40
2023-02-11T04:21:41.979Z,0.38
2023-02-11T04:24:09.502Z,0.60
2023-02-11T04:26:36.980Z,0.40
2023-02-11T04:29:04.472Z,0.68
2023-02-11T04:31:32.069Z,0.30
2023-02-11T04:33:59.616Z,0.40
2023-02-11T04:36:27.117Z,0.60
2023-02-11T04:38:54.623Z,0.55
2023-02-11T04:41:22.844Z,0.50
2023-02-11T04:43:50.308Z,0.40
2023-02-11T04:46:17.880Z,0.63
2023-02-11T04:48:45.489Z,0.88
2023-02-11T04:51:13.034Z,0.60
2023-02-11T04:53:40.823Z,0.60
2023-02-11T04:56:08.439Z,0.45
2023-02-11T04:58:37.306Z,0.77
2023-02-11T05:01:11.498Z,0.68
2023-02-11T05:03:39.357Z,0.40
2023-02-11T05:06:07.566Z,0.60
2023-02-11T05:08:36.113Z,0.35
2023-02-11T05:11:03.757Z,0.60
2023-02-11T05:13:31.387Z,0.40
2023-02-11T05:16:00.161Z,0.55
2023-02-11T05:18:27.879Z,0.60
2023-02-11T05:20:57.576Z,0.40
2023-02-11T05:23:25.105Z,0.57
2023-02-11T05:25:52.780Z,0.55
2023-02-11T05:28:20.490Z,0.50
2023-02-11T05:30:48.255Z,0.85
2023-02-11T05:33:16.007Z,0.40
2023-02-11T05:35:43.486Z,0.68
2023-02-11T05:38:11.001Z,0.45
2023-02-11T05:40:38.577Z,0.70
2023-02-11T05:43:06.142Z,0.73
2023-02-11T05:45:33.828Z,0.40
2023-02-11T05:48:01.518Z,0.50
2023-02-11T05:50:29.008Z,0.70
2023-02-11T05:52:56.605Z,0.68
2023-02-11T05:55:24.316Z,0.75
2023-02-11T05:57:51.956Z,0.40
2023-02-11T06:00:19.672Z,0.60
2023-02-11T06:02:47.246Z,0.80
2023-02-11T06:05:14.830Z,0.60
2023-02-11T06:07:42.432Z,0.43
2023-02-11T06:10:10.768Z,0.40
2023-02-11T06:12:38.733Z,0.73
2023-02-11T06:15:06.801Z,0.63
2023-02-11T06:17:34.677Z,0.40
2023-02-11T06:20:03.480Z,0.80
2023-02-11T06:22:31.056Z,0.50
2023-02-11T06:25:01.643Z,0.60
2023-02-11T06:27:29.890Z,0.70
2023-02-11T06:29:57.413Z,0.90
2023-02-11T06:32:42.700Z,1.45
2023-02-11T06:35:12.111Z,0.60
2023-02-11T06:37:40.334Z,0.80
2023-02-11T06:40:07.938Z,0.68
2023-02-11T06:42:36.777Z,0.43
2023-02-11T06:45:06.607Z,0.50
2023-02-11T06:47:34.146Z,0.50
2023-02-11T06:50:01.647Z,0.80
2023-02-11T06:52:32.313Z,0.65
2023-02-11T06:54:59.900Z,0.70
2023-02-11T06:57:27.427Z,0.43
2023-02-11T06:59:54.940Z,1.00
2023-02-11T07:02:22.393Z,1.08
2023-02-11T07:04:49.962Z,0.60
2023-02-11T07:07:17.483Z,0.73
2023-02-11T07:09:45.079Z,0.65
2023-02-11T07:12:12.853Z,1.00
2023-02-11T07:14:40.557Z,0.68
2023-02-11T07:17:08.063Z,0.77
2023-02-11T07:19:36.636Z,0.68
2023-02-11T07:22:04.119Z,0.80
2023-02-11T07:24:31.644Z,0.50
2023-02-11T07:26:59.142Z,0.90
2023-02-11T07:29:26.614Z,0.55
2023-02-11T07:31:54.125Z,1.15
2023-02-11T07:34:21.790Z,0.40
2023-02-11T07:36:49.979Z,0.47
2023-02-11T07:39:20.774Z,0.90
2023-02-11T07:41:49.872Z,0.60
2023-02-11T07:44:17.369Z,0.50
2023-02-11T07:46:45.934Z,0.65
2023-02-11T07:49:13.554Z,0.60
2023-02-11T07:51:41.071Z,0.73
2023-02-11T07:54:08.824Z,0.52
2023-02-11T07:56:36.363Z,0.55
2023-02-11T07:59:04.479Z,0.47
2023-02-11T08:01:32.017Z,0.77
2023-02-11T08:04:00.551Z,0.93
2023-02-11T08:06:29.785Z,0.40
2023-02-11T08:08:57.406Z,0.88
2023-02-11T08:11:26.810Z,1.00
2023-02-11T08:13:54.864Z,0.70
2023-02-11T08:16:27.076Z,0.40
2023-02-11T08:18:56.404Z,0.40
2023-02-11T08:21:24.581Z,0.80
2023-02-11T08:23:52.272Z,0.70
2023-02-11T08:26:24.051Z,0.95
2023-02-11T08:28:52.492Z,1.05
2023-02-11T08:31:21.464Z,0.60
2023-02-11T08:33:50.168Z,0.50
2023-02-11T08:36:27.119Z,0.57
2023-02-11T08:39:12.192Z,0.55
2023-02-11T08:41:45.820Z,0.50
2023-02-11T08:44:13.951Z,0.50
2023-02-11T08:46:41.568Z,0.65
2023-02-11T08:49:09.153Z,1.02
2023-02-11T08:51:36.816Z,0.80
2023-02-11T08:54:04.403Z,0.80
2023-02-11T08:56:34.509Z,0.50
2023-02-11T08:59:02.070Z,0.90
2023-02-11T09:01:30.744Z,0.70
2023-02-11T09:03:58.865Z,0.63
2023-02-11T09:06:27.187Z,0.75
2023-02-11T09:08:55.895Z,0.70
2023-02-11T09:11:26.429Z,0.68
2023-02-11T09:13:54.712Z,0.88
2023-02-11T09:16:23.831Z,0.75
2023-02-11T09:18:51.826Z,1.23
2023-02-11T09:21:19.717Z,0.95
2023-02-11T09:23:48.738Z,0.47
2023-02-11T09:26:20.436Z,0.70
2023-02-11T09:28:48.601Z,0.75
2023-02-11T09:31:17.702Z,0.50
2023-02-11T09:33:48.589Z,0.65
2023-02-11T09:36:19.216Z,0.82
2023-02-11T09:38:47.492Z,0.80
2023-02-11T09:41:35.254Z,0.73
2023-02-11T09:44:06.518Z,0.75
2023-02-11T09:46:37.193Z,0.50
2023-02-11T09:49:05.710Z,0.60
2023-02-11T09:52:05.536Z,0.50
2023-02-11T09:54:37.709Z,0.70
2023-02-11T09:57:07.859Z,0.60
2023-02-11T09:59:38.104Z,0.82
2023-02-11T10:02:12.377Z,0.57
2023-02-11T10:04:58.598Z,0.47
2023-02-11T10:07:32.067Z,0.70
2023-02-11T10:10:18.133Z,0.60
2023-02-11T10:12:48.493Z,0.80
2023-02-11T10:15:24.614Z,0.70
2023-02-11T10:18:01.337Z,1.08
2023-02-11T10:20:47.504Z,0.60
2023-02-11T10:23:21.303Z,0.50
2023-02-11T10:26:08.617Z,0.70
2023-02-11T10:28:40.150Z,0.70
2023-02-11T10:31:12.333Z,0.60
2023-02-11T10:33:46.098Z,0.50
2023-02-11T10:36:14.428Z,0.40
2023-02-11T10:38:41.986Z,0.77
2023-02-11T10:41:19.323Z,0.70
2023-02-11T10:43:46.923Z,0.65
2023-02-11T10:46:19.923Z,0.70
2023-02-11T10:48:52.578Z,1.65
2023-02-11T10:51:22.490Z,0.50
2023-02-11T10:53:51.296Z,0.32
2023-02-11T10:56:27.523Z,0.60
2023-02-11T10:59:06.135Z,0.55
2023-02-11T11:01:46.211Z,0.65
2023-02-11T11:04:35.043Z,0.60
2023-02-11T11:07:17.958Z,0.70
2023-02-11T11:09:50.771Z,1.52
2023-02-11T11:12:37.165Z,0.70
2023-02-11T11:15:11.308Z,0.98
2023-02-11T11:20:21.178Z,0.60
2023-02-11T11:22:50.200Z,0.60
2023-02-11T11:25:28.621Z,1.08
2023-02-11T11:27:58.384Z,1.13
2023-02-11T11:30:28.529Z,1.30
2023-02-11T11:32:57.145Z,0.80
2023-02-11T11:35:29.905Z,1.05
2023-02-11T11:38:04.831Z,1.67
2023-02-11T11:40:35.457Z,0.98
2023-02-11T11:43:23.495Z,0.57
2023-02-11T11:46:00.768Z,1.25
2023-02-11T11:48:28.223Z,0.95
2023-02-11T11:50:58.853Z,0.40
2023-02-11T11:53:29.157Z,1.35
2023-02-11T11:56:05.355Z,1.05
2023-02-11T11:58:33.586Z,0.63
2023-02-11T12:01:15.798Z,0.75
2023-02-11T12:03:43.339Z,0.57
2023-02-11T12:06:19.424Z,0.70
2023-02-11T12:08:56.190Z,1.08
2023-02-11T12:11:40.346Z,1.05
2023-02-11T12:14:13.723Z,0.88
2023-02-11T12:19:25.445Z,0.70
2023-02-11T12:21:52.892Z,0.63
2023-02-11T12:24:52.645Z,1.23
2023-02-11T12:27:41.787Z,0.70
2023-02-11T12:30:27.642Z,0.60
2023-02-11T12:33:16.985Z,0.80
2023-02-11T12:35:54.515Z,0.50
2023-02-11T12:38:40.069Z,0.90
2023-02-11T12:41:43.897Z,0.60
2023-02-11T12:44:15.112Z,0.65
2023-02-11T12:46:59.168Z,0.95
2023-02-11T12:49:54.049Z,1.02
2023-02-11T12:52:31.662Z,1.88
2023-02-11T12:55:02.369Z,0.90
2023-02-11T12:57:31.975Z,1.40
2023-02-11T13:00:05.594Z,1.75
2023-02-11T13:02:52.883Z,1.25
2023-02-11T13:05:26.232Z,1.42
2023-02-11T13:10:24.086Z,1.10
2023-02-11T13:13:11.404Z,1.63
2023-02-11T13:15:39.622Z,1.95
2023-02-11T13:18:22.649Z,0.73
2023-02-11T13:20:54.433Z,1.13
2023-02-11T13:23:31.496Z,0.47
2023-02-11T13:25:59.264Z,0.85
2023-02-11T13:28:37.240Z,1.42
2023-02-11T13:31:07.817Z,0.70
2023-02-11T13:33:44.054Z,1.75
2023-02-11T13:36:13.630Z,0.80
2023-02-11T13:38:41.228Z,0.90
2023-02-11T13:41:18.897Z,0.63
2023-02-11T13:43:57.569Z,0.90
2023-02-11T13:46:27.781Z,1.52
2023-02-11T13:48:55.849Z,1.38
2023-02-11T13:51:43.436Z,0.85
2023-02-11T13:54:20.856Z,0.60
2023-02-11T13:57:09.219Z,0.73
2023-02-11T13:59:36.710Z,0.90
2023-02-11T14:02:25.712Z,0.90
2023-02-11T14:05:22.000Z,0.65
2023-02-11T14:08:26.581Z,1.30
2023-02-11T14:10:59.035Z,1.13
2023-02-11T14:13:28.186Z,2.27
2023-02-11T14:16:10.011Z,0.57
2023-02-11T14:18:41.772Z,1.15
2023-02-11T14:21:13.993Z,1.73
2023-02-11T14:23:44.063Z,1.08
2023-02-11T14:26:25.758Z,1.42
2023-02-11T14:29:14.840Z,0.85
2023-02-11T14:31:50.293Z,0.85
2023-02-11T14:34:17.900Z,0.70
2023-02-11T14:36:54.368Z,1.02
2023-02-11T14:39:40.985Z,0.68
2023-02-11T14:42:13.998Z,1.38
2023-02-11T14:44:42.149Z,1.17
2023-02-11T14:47:13.804Z,1.20
2023-02-11T14:49:42.519Z,2.35
2023-02-11T14:52:39.469Z,1.05
2023-02-11T14:55:10.102Z,1.45
2023-02-11T14:57:38.529Z,2.13
2023-02-11T15:00:17.246Z,1.58
2023-02-11T15:02:45.395Z,2.22
2023-02-11T15:05:22.060Z,1.55
2023-02-11T15:07:52.390Z,3.22
2023-02-11T15:10:27.587Z,1.92
2023-02-11T15:12:57.825Z,4.75
2023-02-11T15:15:26.373Z,6.10
2023-02-11T15:17:54.372Z,6.65
2023-02-11T15:20:27.377Z,11.45
2023-02-11T15:22:58.282Z,5.50
2023-02-11T15:25:26.604Z,5.63
2023-02-11T15:27:57.251Z,4.40
2023-02-11T15:30:27.634Z,3.30
2023-02-11T15:32:59.875Z,3.67
2023-02-11T15:35:31.658Z,3.28
2023-02-11T15:38:01.610Z,4.10
2023-02-11T15:40:33.725Z,5.05
2023-02-11T15:43:08.653Z,2.38
2023-02-11T15:45:52.571Z,3.65
2023-02-11T15:48:22.460Z,2.35
2023-02-11T15:51:02.597Z,2.72
2023-02-11T15:53:32.546Z,2.33
2023-02-11T15:56:33.911Z,1.75
2023-02-11T15:59:10.609Z,2.42
2023-02-11T16:01:40.308Z,2.30
2023-02-11T16:04:09.526Z,1.50
2023-02-11T16:06:42.335Z,1.50
2023-02-11T16:09:10.786Z,3.58
2023-02-11T16:11:57.022Z,3.17
2023-02-11T16:14:42.790Z,5.03
2023-02-11T16:17:11.985Z,3.03
2023-02-11T16:19:47.233Z,1.70
2023-02-11T16:22:19.865Z,1.52
2023-02-11T16:24:51.820Z,1.73
2023-02-11T16:27:22.162Z,1.20
2023-02-11T16:29:50.172Z,0.80
2023-02-11T16:32:19.498Z,3.42
2023-02-11T16:34:47.378Z,1.90
2023-02-11T16:37:14.847Z,2.08
2023-02-11T16:39:42.424Z,4.60
2023-02-11T16:42:11.099Z,2.53
2023-02-11T16:44:38.558Z,1.08
2023-02-11T16:47:08.215Z,1.65
2023-02-11T16:49:42.086Z,2.08
2023-02-11T16:52:13.530Z,1.80
2023-02-11T16:54:41.008Z,1.30
2023-02-11T16:57:16.578Z,1.75
2023-02-11T16:59:44.252Z,5.28
2023-02-11T17:02:31.925Z,2.95
2023-02-11T17:05:00.411Z,1.90
2023-02-11T17:07:28.681Z,1.02
2023-02-11T17:09:56.284Z,0.93
2023-02-11T17:12:26.070Z,1.33
2023-02-11T17:14:53.934Z,1.52
2023-02-11T17:17:24.288Z,6.25
2023-02-11T17:19:52.018Z,2.03
2023-02-11T17:22:19.961Z,1.60
2023-02-11T17:24:47.633Z,1.45
2023-02-11T17:27:15.843Z,1.40
2023-02-11T17:29:43.504Z,2.10
2023-02-11T17:32:11.106Z,1.60
2023-02-11T17:34:38.667Z,1.65
2023-02-11T17:37:09.764Z,1.98
2023-02-11T17:39:37.865Z,2.25
2023-02-11T17:42:06.731Z,1.23
2023-02-11T17:44:35.135Z,1.17
2023-02-11T17:47:02.631Z,5.82
2023-02-11T17:49:30.395Z,3.53
2023-02-11T17:51:57.881Z,5.90
2023-02-11T17:54:25.720Z,3.85
2023-02-11T17:56:57.770Z,2.92
2023-02-11T17:59:26.656Z,4.55
2023-02-11T18:01:54.733Z,2.50
2023-02-11T18:04:22.282Z,2.05
2023-02-11T18:06:50.967Z,1.95
2023-02-11T18:09:18.411Z,2.40
2023-02-11T18:11:46.183Z,2.50
2023-02-11T18:14:14.060Z,3.20
2023-02-11T18:16:44.219Z,2.97
2023-02-11T18:19:12.766Z,2.13
2023-02-11T18:21:40.407Z,2.15
2023-02-11T18:24:08.077Z,2.55
2023-02-11T18:26:36.129Z,1.65
2023-02-11T18:29:04.781Z,1.92
2023-02-11T18:31:32.358Z,1.65
2023-02-11T18:33:59.912Z,1.55
2023-02-11T18:36:27.766Z,1.55
2023-02-11T18:38:55.339Z,0.93
2023-02-11T18:41:22.868Z,1.20
2023-02-11T18:43:51.370Z,1.05
2023-02-11T18:46:19.229Z,1.95
2023-02-11T18:48:46.873Z,2.05
2023-02-11T18:51:17.657Z,1.10
2023-02-11T18:53:45.556Z,0.85
2023-02-11T18:56:18.619Z,0.93
2023-02-11T18:58:47.219Z,0.80
2023-02-11T19:01:18.034Z,2.30
2023-02-11T19:03:46.088Z,2.00
2023-02-11T19:06:18.118Z,2.00
2023-02-11T19:08:45.714Z,2.50
2023-02-11T19:13:52.621Z,3.70
2023-02-11T19:16:20.381Z,2.50
2023-02-11T19:18:51.734Z,3.30
2023-02-11T19:21:21.308Z,2.42
2023-02-11T19:23:48.868Z,2.20
2023-02-11T19:26:16.314Z,1.67
2023-02-11T19:28:45.318Z,2.47
2023-02-11T19:31:12.932Z,1.88
2023-02-11T19:33:40.440Z,0.82
2023-02-11T19:36:08.900Z,1.77
2023-02-11T19:38:36.634Z,1.55
2023-02-11T19:41:04.157Z,1.10
2023-02-11T19:43:31.680Z,0.80
2023-02-11T19:45:59.228Z,1.13
2023-02-11T19:48:26.721Z,1.48
2023-02-11T19:50:55.675Z,0.95
2023-02-11T19:53:23.286Z,0.95
2023-02-11T19:55:51.451Z,0.65
2023-02-11T19:58:19.184Z,0.63
2023-02-11T20:00:46.656Z,0.65
2023-02-11T20:03:14.100Z,1.38
2023-02-11T20:05:45.096Z,1.38
2023-02-11T20:08:12.602Z,0.95
2023-02-11T20:10:40.390Z,0.77
2023-02-11T20:13:07.963Z,1.20
2023-02-11T20:15:35.518Z,1.33
2023-02-11T20:18:03.087Z,0.80
2023-02-11T20:20:30.680Z,1.25
2023-02-11T20:22:59.217Z,0.80
2023-02-11T20:25:26.690Z,1.05
2023-02-11T20:27:54.892Z,1.73
2023-02-11T20:30:22.589Z,0.82
2023-02-11T20:32:50.717Z,1.27
2023-02-11T20:35:19.022Z,0.95
2023-02-11T20:37:46.576Z,1.00
2023-02-11T20:40:16.096Z,0.95
2023-02-11T20:42:43.718Z,1.10
2023-02-11T20:45:11.256Z,1.45
2023-02-11T20:47:39.891Z,1.10
2023-02-11T20:50:07.973Z,1.40
2023-02-11T20:52:35.434Z,1.55
2023-02-11T20:55:03.955Z,0.85
2023-02-11T20:57:31.497Z,2.70
2023-02-11T20:59:58.977Z,2.15
2023-02-11T21:02:26.727Z,5.60
2023-02-11T21:04:54.207Z,5.35
2023-02-11T21:07:21.760Z,2.47
2023-02-11T21:09:57.930Z,2.65
2023-02-11T21:12:25.772Z,1.10
2023-02-11T21:14:55.644Z,1.58
2023-02-11T21:17:23.251Z,1.73
2023-02-11T21:19:50.756Z,2.38
2023-02-11T21:22:18.393Z,2.22
2023-02-11T21:24:45.869Z,1.15
2023-02-11T21:27:13.372Z,2.13
2023-02-11T21:29:53.381Z,1.67
2023-02-11T21:32:21.100Z,1.60
2023-02-11T21:34:48.711Z,1.55
2023-02-11T21:37:16.282Z,1.48
2023-02-11T21:39:43.992Z,1.10
2023-02-11T21:42:11.877Z,1.90
2023-02-11T21:44:39.947Z,1.95
2023-02-11T21:47:08.157Z,1.80
2023-02-11T21:49:38.454Z,1.15
2023-02-11T21:52:06.010Z,1.17
2023-02-11T21:54:36.556Z,1.10
2023-02-11T21:57:04.132Z,1.88
2023-02-11T21:59:33.131Z,1.92
2023-02-11T22:02:01.622Z,1.75
2023-02-11T22:04:29.210Z,1.30
2023-02-11T22:06:56.704Z,1.73
2023-02-11T22:09:24.272Z,1.63
2023-02-11T22:11:51.815Z,1.92
2023-02-11T22:14:19.798Z,1.50
2023-02-11T22:16:47.648Z,2.13
2023-02-11T22:19:16.217Z,1.60
2023-02-11T22:21:44.723Z,1.67
2023-02-11T22:24:12.576Z,2.35
2023-02-11T22:26:40.197Z,1.63
2023-02-11T22:29:08.741Z,1.27
2023-02-11T22:31:38.015Z,1.00
2023-02-11T22:34:06.021Z,1.48
2023-02-11T22:36:40.190Z,2.25
2023-02-11T22:39:09.670Z,1.55
2023-02-11T22:41:39.089Z,1.50
2023-02-11T22:44:06.608Z,2.22
2023-02-11T22:46:34.255Z,1.33
2023-02-11T22:49:02.337Z,1.35
2023-02-11T22:51:30.734Z,1.85
2023-02-11T22:53:59.411Z,1.40
2023-02-11T22:56:27.489Z,1.50
2023-02-11T22:58:57.642Z,1.63
2023-02-11T23:01:25.143Z,0.90
2023-02-11T23:03:52.694Z,2.28
2023-02-11T23:06:20.702Z,1.48
2023-02-11T23:08:48.469Z,2.85
2023-02-11T23:11:17.649Z,1.60
2023-02-11T23:13:46.348Z,1.45
2023-02-11T23:16:15.261Z,2.15
2023-02-11T23:18:44.582Z,2.42
2023-02-11T23:21:17.955Z,1.23
2023-02-11T23:26:30.753Z,2.17
2023-02-11T23:28:59.029Z,1.35
2023-02-11T23:31:28.462Z,1.60
2023-02-11T23:33:56.210Z,3.30
2023-02-11T23:36:25.350Z,1.60
2023-02-11T23:38:53.035Z,2.22
2023-02-11T23:41:20.928Z,2.72
2023-02-11T23:43:55.914Z,1.48
2023-02-11T23:46:24.019Z,1.80
2023-02-11T23:48:52.104Z,2.13
2023-02-11T23:51:21.310Z,1.92
2023-02-11T23:53:51.687Z,3.05
2023-02-11T23:56:21.560Z,2.25
2023-02-11T23:58:50.110Z,1.90
